LGA weather

La Guardia Airport
New York, New York, United States

Public forecast

Using degrees Fahrenheit for public forecast. Weather courtesy of forecast.io.

Current aviation weather report (METAR) for La Guardia Airport

Retrieved 2020/01/26 18:51 UTC (1 hour ago):

KLGA 261851Z 28010G15KT 10SM SCT040 BKN049 BKN100 BKN200 BKN250 07/M04 A2975 RMK AO2 SLP074 T00721039

Aviation forecast (TAF) for La Guardia Airport

Retrieved 2020/01/26 18:36 UTC (2 hours ago):

TAF KLGA 261732Z 2618/2724 27015G22KT P6SM SCT035 SCT250 FM262200 27013KT P6SM BKN040 FM270300 27010KT P6SM SCT040 SCT070 SCT100 FM271500 28015G22KT P6SM BKN040